sensor_id;sensor_type;location;lat;lon;timestamp;P1;durP1;ratioP1;P2;durP2;ratioP2
36257;SDS011;22294;52.044;4.582;2023-02-15T00:01:40;35.72;;;26.08;;
36257;SDS011;22294;52.044;4.582;2023-02-15T00:04:06;35.65;;;25.75;;
36257;SDS011;22294;52.044;4.582;2023-02-15T00:06:32;36.15;;;25.08;;
36257;SDS011;22294;52.044;4.582;2023-02-15T00:08:58;40.28;;;25.15;;
36257;SDS011;22294;52.044;4.582;2023-02-15T00:11:24;34.70;;;23.80;;
36257;SDS011;22294;52.044;4.582;2023-02-15T00:14:06;70.95;;;22.98;;
36257;SDS011;22294;52.044;4.582;2023-02-15T00:16:35;37.13;;;22.70;;
36257;SDS011;22294;52.044;4.582;2023-02-15T00:19:01;57.20;;;24.15;;
36257;SDS011;22294;52.044;4.582;2023-02-15T00:21:27;116.53;;;26.55;;
36257;SDS011;22294;52.044;4.582;2023-02-15T00:23:55;128.65;;;25.88;;
36257;SDS011;22294;52.044;4.582;2023-02-15T00:26:21;81.35;;;26.17;;
36257;SDS011;22294;52.044;4.582;2023-02-15T00:28:46;64.22;;;27.58;;
36257;SDS011;22294;52.044;4.582;2023-02-15T00:31:11;42.47;;;27.27;;
36257;SDS011;22294;52.044;4.582;2023-02-15T00:33:37;38.35;;;27.50;;
36257;SDS011;22294;52.044;4.582;2023-02-15T00:36:04;46.55;;;28.70;;
36257;SDS011;22294;52.044;4.582;2023-02-15T00:38:30;34.13;;;25.23;;
36257;SDS011;22294;52.044;4.582;2023-02-15T00:40:57;33.60;;;24.75;;
36257;SDS011;22294;52.044;4.582;2023-02-15T00:43:24;31.63;;;24.20;;
36257;SDS011;22294;52.044;4.582;2023-02-15T00:45:49;40.83;;;27.45;;
36257;SDS011;22294;52.044;4.582;2023-02-15T00:48:15;37.05;;;26.65;;
36257;SDS011;22294;52.044;4.582;2023-02-15T00:50:41;50.05;;;30.63;;
36257;SDS011;22294;52.044;4.582;2023-02-15T00:53:06;55.15;;;33.20;;
36257;SDS011;22294;52.044;4.582;2023-02-15T00:55:31;46.80;;;30.33;;
36257;SDS011;22294;52.044;4.582;2023-02-15T00:57:57;42.45;;;27.23;;
36257;SDS011;22294;52.044;4.582;2023-02-15T01:00:22;40.22;;;27.05;;
36257;SDS011;22294;52.044;4.582;2023-02-15T01:02:47;43.65;;;27.35;;
36257;SDS011;22294;52.044;4.582;2023-02-15T01:05:15;73.30;;;38.15;;
36257;SDS011;22294;52.044;4.582;2023-02-15T01:07:41;44.47;;;28.00;;
36257;SDS011;22294;52.044;4.582;2023-02-15T01:10:06;47.15;;;29.00;;
36257;SDS011;22294;52.044;4.582;2023-02-15T01:12:32;44.70;;;30.38;;
36257;SDS011;22294;52.044;4.582;2023-02-15T01:14:58;46.20;;;29.55;;
36257;SDS011;22294;52.044;4.582;2023-02-15T01:17:23;44.45;;;27.60;;
36257;SDS011;22294;52.044;4.582;2023-02-15T01:19:49;42.47;;;26.92;;
36257;SDS011;22294;52.044;4.582;2023-02-15T01:22:14;36.33;;;25.27;;
36257;SDS011;22294;52.044;4.582;2023-02-15T01:24:39;40.13;;;26.10;;
36257;SDS011;22294;52.044;4.582;2023-02-15T01:27:04;35.03;;;25.02;;
36257;SDS011;22294;52.044;4.582;2023-02-15T01:29:30;37.97;;;24.95;;
36257;SDS011;22294;52.044;4.582;2023-02-15T01:31:55;39.08;;;25.58;;
36257;SDS011;22294;52.044;4.582;2023-02-15T01:34:20;49.65;;;29.20;;
36257;SDS011;22294;52.044;4.582;2023-02-15T01:36:46;48.50;;;28.40;;
36257;SDS011;22294;52.044;4.582;2023-02-15T01:39:11;47.78;;;30.55;;
36257;SDS011;22294;52.044;4.582;2023-02-15T01:41:36;58.70;;;33.97;;
36257;SDS011;22294;52.044;4.582;2023-02-15T01:44:02;61.83;;;34.20;;
36257;SDS011;22294;52.044;4.582;2023-02-15T01:46:38;63.92;;;34.92;;
36257;SDS011;22294;52.044;4.582;2023-02-15T01:49:09;62.25;;;33.72;;
36257;SDS011;22294;52.044;4.582;2023-02-15T01:51:39;60.03;;;33.85;;
36257;SDS011;22294;52.044;4.582;2023-02-15T01:54:09;59.05;;;33.17;;
36257;SDS011;22294;52.044;4.582;2023-02-15T01:56:42;57.33;;;34.55;;
36257;SDS011;22294;52.044;4.582;2023-02-15T01:59:09;63.72;;;35.33;;
36257;SDS011;22294;52.044;4.582;2023-02-15T02:01:40;60.92;;;33.85;;
36257;SDS011;22294;52.044;4.582;2023-02-15T02:04:10;61.97;;;35.22;;
36257;SDS011;22294;52.044;4.582;2023-02-15T02:06:37;65.53;;;35.70;;
36257;SDS011;22294;52.044;4.582;2023-02-15T02:09:04;63.38;;;36.72;;
36257;SDS011;22294;52.044;4.582;2023-02-15T02:11:29;66.63;;;37.60;;
36257;SDS011;22294;52.044;4.582;2023-02-15T02:13:54;68.97;;;38.25;;
36257;SDS011;22294;52.044;4.582;2023-02-15T02:25:24;63.65;;;35.30;;
36257;SDS011;22294;52.044;4.582;2023-02-15T02:36:40;59.63;;;33.38;;
36257;SDS011;22294;52.044;4.582;2023-02-15T02:39:27;59.85;;;32.53;;
36257;SDS011;22294;52.044;4.582;2023-02-15T02:42:01;59.90;;;34.17;;
36257;SDS011;22294;52.044;4.582;2023-02-15T02:44:47;56.50;;;32.92;;
36257;SDS011;22294;52.044;4.582;2023-02-15T02:49:45;46.85;;;28.50;;
36257;SDS011;22294;52.044;4.582;2023-02-15T02:55:01;53.08;;;30.70;;
36257;SDS011;22294;52.044;4.582;2023-02-15T02:57:30;52.20;;;30.42;;
36257;SDS011;22294;52.044;4.582;2023-02-15T02:59:57;57.75;;;32.75;;
36257;SDS011;22294;52.044;4.582;2023-02-15T03:02:26;52.03;;;31.08;;
36257;SDS011;22294;52.044;4.582;2023-02-15T03:04:58;56.15;;;31.80;;
36257;SDS011;22294;52.044;4.582;2023-02-15T03:07:28;56.25;;;32.03;;
36257;SDS011;22294;52.044;4.582;2023-02-15T03:09:59;45.38;;;28.75;;
36257;SDS011;22294;52.044;4.582;2023-02-15T03:12:30;51.67;;;30.02;;
36257;SDS011;22294;52.044;4.582;2023-02-15T03:17:27;48.22;;;28.88;;
36257;SDS011;22294;52.044;4.582;2023-02-15T03:19:58;47.90;;;28.05;;
36257;SDS011;22294;52.044;4.582;2023-02-15T03:23:13;45.58;;;27.70;;
36257;SDS011;22294;52.044;4.582;2023-02-15T03:25:21;47.38;;;29.35;;
36257;SDS011;22294;52.044;4.582;2023-02-15T03:27:52;42.20;;;26.92;;
36257;SDS011;22294;52.044;4.582;2023-02-15T03:30:24;34.75;;;23.25;;
36257;SDS011;22294;52.044;4.582;2023-02-15T03:32:51;28.40;;;21.23;;
36257;SDS011;22294;52.044;4.582;2023-02-15T03:35:19;30.85;;;21.20;;
36257;SDS011;22294;52.044;4.582;2023-02-15T03:37:54;31.98;;;22.70;;
36257;SDS011;22294;52.044;4.582;2023-02-15T03:40:44;32.65;;;23.23;;
36257;SDS011;22294;52.044;4.582;2023-02-15T03:43:32;36.45;;;24.73;;
36257;SDS011;22294;52.044;4.582;2023-02-15T03:46:17;36.20;;;23.73;;
36257;SDS011;22294;52.044;4.582;2023-02-15T03:48:55;34.05;;;23.77;;
36257;SDS011;22294;52.044;4.582;2023-02-15T03:51:26;38.13;;;24.77;;
36257;SDS011;22294;52.044;4.582;2023-02-15T03:54:10;40.53;;;25.80;;
36257;SDS011;22294;52.044;4.582;2023-02-15T03:57:02;31.90;;;22.80;;
36257;SDS011;22294;52.044;4.582;2023-02-15T03:59:47;37.08;;;25.02;;
36257;SDS011;22294;52.044;4.582;2023-02-15T04:02:34;35.03;;;23.92;;
36257;SDS011;22294;52.044;4.582;2023-02-15T04:05:08;38.00;;;25.23;;
36257;SDS011;22294;52.044;4.582;2023-02-15T04:07:33;39.03;;;24.50;;
36257;SDS011;22294;52.044;4.582;2023-02-15T04:09:58;54.45;;;30.40;;
36257;SDS011;22294;52.044;4.582;2023-02-15T04:12:42;56.80;;;31.05;;
36257;SDS011;22294;52.044;4.582;2023-02-15T04:15:11;66.05;;;34.28;;
36257;SDS011;22294;52.044;4.582;2023-02-15T04:17:55;62.05;;;33.60;;
36257;SDS011;22294;52.044;4.582;2023-02-15T04:20:21;71.70;;;36.92;;
36257;SDS011;22294;52.044;4.582;2023-02-15T04:23:08;64.38;;;33.47;;
36257;SDS011;22294;52.044;4.582;2023-02-15T04:25:51;72.18;;;35.90;;
36257;SDS011;22294;52.044;4.582;2023-02-15T04:28:17;70.35;;;36.00;;
36257;SDS011;22294;52.044;4.582;2023-02-15T04:30:42;73.03;;;35.92;;
36257;SDS011;22294;52.044;4.582;2023-02-15T04:33:07;66.65;;;34.75;;
36257;SDS011;22294;52.044;4.582;2023-02-15T04:35:33;64.40;;;33.92;;
36257;SDS011;22294;52.044;4.582;2023-02-15T04:37:58;67.20;;;34.60;;
36257;SDS011;22294;52.044;4.582;2023-02-15T04:40:24;72.00;;;36.22;;
36257;SDS011;22294;52.044;4.582;2023-02-15T04:42:50;73.72;;;36.85;;
36257;SDS011;22294;52.044;4.582;2023-02-15T04:45:16;70.47;;;37.45;;
36257;SDS011;22294;52.044;4.582;2023-02-15T04:47:42;68.30;;;37.50;;
36257;SDS011;22294;52.044;4.582;2023-02-15T04:50:07;69.13;;;36.85;;
36257;SDS011;22294;52.044;4.582;2023-02-15T04:52:32;70.35;;;36.53;;
36257;SDS011;22294;52.044;4.582;2023-02-15T04:54:58;74.63;;;36.78;;
36257;SDS011;22294;52.044;4.582;2023-02-15T04:57:23;67.90;;;36.90;;
36257;SDS011;22294;52.044;4.582;2023-02-15T04:59:48;74.15;;;37.88;;
36257;SDS011;22294;52.044;4.582;2023-02-15T05:02:14;70.63;;;37.30;;
36257;SDS011;22294;52.044;4.582;2023-02-15T05:04:39;74.63;;;37.92;;
36257;SDS011;22294;52.044;4.582;2023-02-15T05:07:04;71.03;;;38.45;;
36257;SDS011;22294;52.044;4.582;2023-02-15T05:09:29;76.15;;;37.80;;
36257;SDS011;22294;52.044;4.582;2023-02-15T05:11:55;70.50;;;35.67;;
36257;SDS011;22294;52.044;4.582;2023-02-15T05:14:20;74.22;;;36.90;;
36257;SDS011;22294;52.044;4.582;2023-02-15T05:16:45;72.82;;;37.95;;
36257;SDS011;22294;52.044;4.582;2023-02-15T05:19:11;73.18;;;38.20;;
36257;SDS011;22294;52.044;4.582;2023-02-15T05:21:36;68.88;;;35.40;;
36257;SDS011;22294;52.044;4.582;2023-02-15T05:24:01;71.32;;;37.67;;
36257;SDS011;22294;52.044;4.582;2023-02-15T05:26:47;67.97;;;36.72;;
36257;SDS011;22294;52.044;4.582;2023-02-15T05:29:31;71.57;;;35.35;;
36257;SDS011;22294;52.044;4.582;2023-02-15T05:31:56;62.85;;;34.78;;
36257;SDS011;22294;52.044;4.582;2023-02-15T05:34:21;67.57;;;36.10;;
36257;SDS011;22294;52.044;4.582;2023-02-15T05:36:47;72.40;;;36.47;;
36257;SDS011;22294;52.044;4.582;2023-02-15T05:39:12;65.95;;;35.38;;
36257;SDS011;22294;52.044;4.582;2023-02-15T05:41:37;60.97;;;34.03;;
36257;SDS011;22294;52.044;4.582;2023-02-15T05:44:02;68.20;;;36.80;;
36257;SDS011;22294;52.044;4.582;2023-02-15T05:46:28;75.25;;;38.10;;
36257;SDS011;22294;52.044;4.582;2023-02-15T05:48:53;72.03;;;37.75;;
36257;SDS011;22294;52.044;4.582;2023-02-15T05:51:18;69.25;;;37.03;;
36257;SDS011;22294;52.044;4.582;2023-02-15T05:53:44;72.78;;;36.20;;
36257;SDS011;22294;52.044;4.582;2023-02-15T05:56:09;63.50;;;33.75;;
36257;SDS011;22294;52.044;4.582;2023-02-15T05:58:37;71.97;;;37.22;;
36257;SDS011;22294;52.044;4.582;2023-02-15T06:01:14;67.43;;;36.00;;
36257;SDS011;22294;52.044;4.582;2023-02-15T06:03:42;66.07;;;36.88;;
36257;SDS011;22294;52.044;4.582;2023-02-15T06:06:07;77.50;;;38.67;;
36257;SDS011;22294;52.044;4.582;2023-02-15T06:08:34;73.10;;;37.65;;
36257;SDS011;22294;52.044;4.582;2023-02-15T06:11:00;73.70;;;36.90;;
36257;SDS011;22294;52.044;4.582;2023-02-15T06:13:25;70.90;;;36.53;;
36257;SDS011;22294;52.044;4.582;2023-02-15T06:15:51;71.20;;;37.72;;
36257;SDS011;22294;52.044;4.582;2023-02-15T06:18:16;64.40;;;35.65;;
36257;SDS011;22294;52.044;4.582;2023-02-15T06:20:41;62.22;;;34.20;;
36257;SDS011;22294;52.044;4.582;2023-02-15T06:23:07;67.78;;;35.08;;
36257;SDS011;22294;52.044;4.582;2023-02-15T06:25:33;72.90;;;37.17;;
36257;SDS011;22294;52.044;4.582;2023-02-15T06:27:59;75.55;;;37.50;;
36257;SDS011;22294;52.044;4.582;2023-02-15T06:30:24;68.95;;;37.60;;
36257;SDS011;22294;52.044;4.582;2023-02-15T06:32:49;71.63;;;36.65;;
36257;SDS011;22294;52.044;4.582;2023-02-15T06:35:15;67.45;;;35.45;;
36257;SDS011;22294;52.044;4.582;2023-02-15T06:37:40;68.05;;;35.45;;
36257;SDS011;22294;52.044;4.582;2023-02-15T06:40:05;67.10;;;37.40;;
36257;SDS011;22294;52.044;4.582;2023-02-15T06:42:32;70.57;;;38.83;;
36257;SDS011;22294;52.044;4.582;2023-02-15T06:44:57;62.80;;;35.85;;
36257;SDS011;22294;52.044;4.582;2023-02-15T06:47:23;66.65;;;35.50;;
36257;SDS011;22294;52.044;4.582;2023-02-15T06:49:49;71.72;;;37.28;;
36257;SDS011;22294;52.044;4.582;2023-02-15T06:52:14;62.45;;;32.92;;
36257;SDS011;22294;52.044;4.582;2023-02-15T06:54:39;65.05;;;33.35;;
36257;SDS011;22294;52.044;4.582;2023-02-15T06:57:05;57.42;;;32.67;;
36257;SDS011;22294;52.044;4.582;2023-02-15T06:59:30;59.63;;;33.35;;
36257;SDS011;22294;52.044;4.582;2023-02-15T07:01:55;56.78;;;32.83;;
36257;SDS011;22294;52.044;4.582;2023-02-15T07:04:20;61.28;;;33.70;;
36257;SDS011;22294;52.044;4.582;2023-02-15T07:06:46;65.20;;;34.13;;
36257;SDS011;22294;52.044;4.582;2023-02-15T07:09:11;67.40;;;31.92;;
36257;SDS011;22294;52.044;4.582;2023-02-15T07:11:37;64.65;;;33.85;;
36257;SDS011;22294;52.044;4.582;2023-02-15T07:14:21;59.33;;;32.38;;
36257;SDS011;22294;52.044;4.582;2023-02-15T07:16:46;60.50;;;31.88;;
36257;SDS011;22294;52.044;4.582;2023-02-15T07:19:12;59.60;;;32.42;;
36257;SDS011;22294;52.044;4.582;2023-02-15T07:21:37;62.35;;;31.77;;
36257;SDS011;22294;52.044;4.582;2023-02-15T07:24:02;65.47;;;35.13;;
36257;SDS011;22294;52.044;4.582;2023-02-15T07:26:28;62.88;;;32.90;;
36257;SDS011;22294;52.044;4.582;2023-02-15T07:28:55;63.28;;;32.95;;
36257;SDS011;22294;52.044;4.582;2023-02-15T07:31:21;57.90;;;31.75;;
36257;SDS011;22294;52.044;4.582;2023-02-15T07:33:46;55.80;;;32.00;;
36257;SDS011;22294;52.044;4.582;2023-02-15T07:36:11;60.53;;;33.25;;
36257;SDS011;22294;52.044;4.582;2023-02-15T07:38:38;66.32;;;32.90;;
36257;SDS011;22294;52.044;4.582;2023-02-15T07:41:06;61.83;;;33.72;;
36257;SDS011;22294;52.044;4.582;2023-02-15T07:43:33;57.25;;;31.95;;
36257;SDS011;22294;52.044;4.582;2023-02-15T07:46:01;64.38;;;35.75;;
36257;SDS011;22294;52.044;4.582;2023-02-15T07:48:28;68.25;;;37.08;;
36257;SDS011;22294;52.044;4.582;2023-02-15T07:50:53;62.38;;;34.85;;
36257;SDS011;22294;52.044;4.582;2023-02-15T07:53:18;64.80;;;34.80;;
36257;SDS011;22294;52.044;4.582;2023-02-15T07:55:44;58.67;;;33.35;;
36257;SDS011;22294;52.044;4.582;2023-02-15T07:58:09;61.20;;;33.15;;
36257;SDS011;22294;52.044;4.582;2023-02-15T08:00:34;64.78;;;33.25;;
36257;SDS011;22294;52.044;4.582;2023-02-15T08:03:22;64.93;;;33.50;;
36257;SDS011;22294;52.044;4.582;2023-02-15T08:05:57;60.30;;;32.63;;
36257;SDS011;22294;52.044;4.582;2023-02-15T08:08:23;61.03;;;32.88;;
36257;SDS011;22294;52.044;4.582;2023-02-15T08:10:59;62.08;;;34.13;;
36257;SDS011;22294;52.044;4.582;2023-02-15T08:19:15;63.30;;;33.42;;
36257;SDS011;22294;52.044;4.582;2023-02-15T08:21:43;60.45;;;33.50;;
36257;SDS011;22294;52.044;4.582;2023-02-15T08:24:12;61.60;;;34.03;;
36257;SDS011;22294;52.044;4.582;2023-02-15T08:26:39;58.17;;;33.63;;
36257;SDS011;22294;52.044;4.582;2023-02-15T08:29:05;57.88;;;33.75;;
36257;SDS011;22294;52.044;4.582;2023-02-15T08:31:32;65.68;;;34.95;;
36257;SDS011;22294;52.044;4.582;2023-02-15T08:33:57;59.63;;;34.53;;
36257;SDS011;22294;52.044;4.582;2023-02-15T08:36:24;62.35;;;34.55;;
36257;SDS011;22294;52.044;4.582;2023-02-15T08:38:51;65.35;;;36.42;;
36257;SDS011;22294;52.044;4.582;2023-02-15T08:41:18;61.65;;;35.10;;
36257;SDS011;22294;52.044;4.582;2023-02-15T08:43:49;64.25;;;35.65;;
36257;SDS011;22294;52.044;4.582;2023-02-15T08:46:16;67.68;;;36.50;;
36257;SDS011;22294;52.044;4.582;2023-02-15T08:48:43;66.05;;;35.38;;
36257;SDS011;22294;52.044;4.582;2023-02-15T08:51:10;61.22;;;34.90;;
36257;SDS011;22294;52.044;4.582;2023-02-15T08:53:38;69.13;;;36.43;;
36257;SDS011;22294;52.044;4.582;2023-02-15T08:56:05;62.13;;;34.78;;
36257;SDS011;22294;52.044;4.582;2023-02-15T08:58:31;69.70;;;38.22;;
36257;SDS011;22294;52.044;4.582;2023-02-15T09:00:57;66.68;;;37.50;;
36257;SDS011;22294;52.044;4.582;2023-02-15T09:03:22;62.15;;;35.85;;
36257;SDS011;22294;52.044;4.582;2023-02-15T09:05:48;68.30;;;36.08;;
36257;SDS011;22294;52.044;4.582;2023-02-15T09:08:14;65.15;;;36.25;;
36257;SDS011;22294;52.044;4.582;2023-02-15T09:10:39;63.67;;;35.40;;
36257;SDS011;22294;52.044;4.582;2023-02-15T09:13:04;66.45;;;37.30;;
36257;SDS011;22294;52.044;4.582;2023-02-15T09:15:30;65.18;;;36.85;;
36257;SDS011;22294;52.044;4.582;2023-02-15T09:17:55;65.07;;;37.25;;
36257;SDS011;22294;52.044;4.582;2023-02-15T09:20:20;63.22;;;34.97;;
36257;SDS011;22294;52.044;4.582;2023-02-15T09:22:46;61.28;;;34.25;;
36257;SDS011;22294;52.044;4.582;2023-02-15T09:25:12;66.75;;;37.05;;
36257;SDS011;22294;52.044;4.582;2023-02-15T09:27:38;67.10;;;37.97;;
36257;SDS011;22294;52.044;4.582;2023-02-15T09:30:04;72.28;;;39.42;;
36257;SDS011;22294;52.044;4.582;2023-02-15T09:32:30;68.85;;;36.22;;
36257;SDS011;22294;52.044;4.582;2023-02-15T09:34:56;70.20;;;38.05;;
36257;SDS011;22294;52.044;4.582;2023-02-15T09:37:21;69.20;;;39.28;;
36257;SDS011;22294;52.044;4.582;2023-02-15T09:39:46;67.90;;;37.45;;
36257;SDS011;22294;52.044;4.582;2023-02-15T09:42:22;75.43;;;39.00;;
36257;SDS011;22294;52.044;4.582;2023-02-15T09:45:13;70.35;;;39.83;;
36257;SDS011;22294;52.044;4.582;2023-02-15T09:48:17;69.15;;;39.33;;
36257;SDS011;22294;52.044;4.582;2023-02-15T10:10:23;77.00;;;40.17;;
36257;SDS011;22294;52.044;4.582;2023-02-15T10:12:57;71.00;;;40.38;;
36257;SDS011;22294;52.044;4.582;2023-02-15T10:15:47;69.75;;;39.22;;
36257;SDS011;22294;52.044;4.582;2023-02-15T10:18:21;77.13;;;42.95;;
36257;SDS011;22294;52.044;4.582;2023-02-15T10:28:51;67.22;;;39.08;;
36257;SDS011;22294;52.044;4.582;2023-02-15T10:34:20;73.10;;;40.10;;
36257;SDS011;22294;52.044;4.582;2023-02-15T10:42:49;68.97;;;41.03;;
36257;SDS011;22294;52.044;4.582;2023-02-15T10:51:08;76.47;;;41.33;;
36257;SDS011;22294;52.044;4.582;2023-02-15T10:59:34;74.53;;;41.67;;
36257;SDS011;22294;52.044;4.582;2023-02-15T11:02:18;74.15;;;40.90;;
36257;SDS011;22294;52.044;4.582;2023-02-15T11:04:59;72.63;;;39.63;;
36257;SDS011;22294;52.044;4.582;2023-02-15T11:07:35;72.30;;;39.60;;
36257;SDS011;22294;52.044;4.582;2023-02-15T11:10:18;66.07;;;39.63;;
36257;SDS011;22294;52.044;4.582;2023-02-15T11:13:05;66.85;;;38.20;;
36257;SDS011;22294;52.044;4.582;2023-02-15T11:15:39;69.90;;;38.67;;
36257;SDS011;22294;52.044;4.582;2023-02-15T11:20:55;68.82;;;38.55;;
36257;SDS011;22294;52.044;4.582;2023-02-15T11:23:21;69.25;;;38.47;;
36257;SDS011;22294;52.044;4.582;2023-02-15T11:25:57;66.35;;;39.33;;
36257;SDS011;22294;52.044;4.582;2023-02-15T11:28:33;65.13;;;37.65;;
36257;SDS011;22294;52.044;4.582;2023-02-15T11:31:15;66.82;;;37.85;;
36257;SDS011;22294;52.044;4.582;2023-02-15T11:33:44;70.47;;;38.83;;
36257;SDS011;22294;52.044;4.582;2023-02-15T11:36:21;66.15;;;38.60;;
36257;SDS011;22294;52.044;4.582;2023-02-15T11:38:52;67.05;;;38.22;;
36257;SDS011;22294;52.044;4.582;2023-02-15T11:41:24;70.00;;;37.80;;
36257;SDS011;22294;52.044;4.582;2023-02-15T11:44:04;67.70;;;37.90;;
36257;SDS011;22294;52.044;4.582;2023-02-15T11:46:33;71.32;;;38.90;;
36257;SDS011;22294;52.044;4.582;2023-02-15T11:48:58;68.40;;;37.92;;
36257;SDS011;22294;52.044;4.582;2023-02-15T11:51:24;68.30;;;39.28;;
36257;SDS011;22294;52.044;4.582;2023-02-15T11:53:52;69.50;;;39.72;;
36257;SDS011;22294;52.044;4.582;2023-02-15T11:56:20;67.25;;;38.35;;
36257;SDS011;22294;52.044;4.582;2023-02-15T11:58:57;67.57;;;38.83;;
36257;SDS011;22294;52.044;4.582;2023-02-15T12:01:38;71.53;;;39.10;;
36257;SDS011;22294;52.044;4.582;2023-02-15T12:04:28;69.75;;;39.08;;
36257;SDS011;22294;52.044;4.582;2023-02-15T12:06:57;67.60;;;37.53;;
36257;SDS011;22294;52.044;4.582;2023-02-15T12:09:38;67.13;;;39.03;;
36257;SDS011;22294;52.044;4.582;2023-02-15T12:12:21;63.80;;;36.75;;
36257;SDS011;22294;52.044;4.582;2023-02-15T12:14:58;68.80;;;38.60;;
36257;SDS011;22294;52.044;4.582;2023-02-15T12:17:29;64.25;;;36.72;;
36257;SDS011;22294;52.044;4.582;2023-02-15T12:22:39;67.13;;;36.80;;
36257;SDS011;22294;52.044;4.582;2023-02-15T12:25:28;63.08;;;36.97;;
36257;SDS011;22294;52.044;4.582;2023-02-15T12:28:26;62.58;;;38.05;;
36257;SDS011;22294;52.044;4.582;2023-02-15T12:30:58;66.65;;;37.80;;
36257;SDS011;22294;52.044;4.582;2023-02-15T12:33:34;62.00;;;37.08;;
36257;SDS011;22294;52.044;4.582;2023-02-15T12:39:02;62.15;;;36.50;;
36257;SDS011;22294;52.044;4.582;2023-02-15T12:41:37;64.35;;;35.35;;
36257;SDS011;22294;52.044;4.582;2023-02-15T12:49:42;62.00;;;34.53;;
36257;SDS011;22294;52.044;4.582;2023-02-15T12:54:44;62.92;;;34.85;;
36257;SDS011;22294;52.044;4.582;2023-02-15T12:59:49;61.70;;;33.83;;
36257;SDS011;22294;52.044;4.582;2023-02-15T13:02:21;57.75;;;34.25;;
36257;SDS011;22294;52.044;4.582;2023-02-15T13:04:48;58.93;;;33.47;;
36257;SDS011;22294;52.044;4.582;2023-02-15T13:07:15;56.55;;;33.08;;
36257;SDS011;22294;52.044;4.582;2023-02-15T13:09:40;62.03;;;33.42;;
36257;SDS011;22294;52.044;4.582;2023-02-15T13:12:20;56.67;;;32.33;;
36257;SDS011;22294;52.044;4.582;2023-02-15T13:14:48;58.40;;;33.40;;
36257;SDS011;22294;52.044;4.582;2023-02-15T13:17:16;56.88;;;33.53;;
36257;SDS011;22294;52.044;4.582;2023-02-15T13:19:46;61.72;;;33.03;;
36257;SDS011;22294;52.044;4.582;2023-02-15T13:22:16;60.13;;;32.60;;
36257;SDS011;22294;52.044;4.582;2023-02-15T13:24:47;60.33;;;34.83;;
36257;SDS011;22294;52.044;4.582;2023-02-15T13:27:27;62.28;;;33.25;;
36257;SDS011;22294;52.044;4.582;2023-02-15T13:29:58;61.08;;;34.47;;
36257;SDS011;22294;52.044;4.582;2023-02-15T13:32:31;59.17;;;33.78;;
36257;SDS011;22294;52.044;4.582;2023-02-15T13:35:02;59.92;;;35.00;;
36257;SDS011;22294;52.044;4.582;2023-02-15T13:40:25;58.50;;;34.97;;
36257;SDS011;22294;52.044;4.582;2023-02-15T13:48:15;58.17;;;35.25;;
36257;SDS011;22294;52.044;4.582;2023-02-15T13:53:52;58.45;;;34.95;;
36257;SDS011;22294;52.044;4.582;2023-02-15T13:59:24;59.97;;;35.28;;
36257;SDS011;22294;52.044;4.582;2023-02-15T14:13:02;61.67;;;34.50;;
36257;SDS011;22294;52.044;4.582;2023-02-15T14:21:15;60.85;;;32.45;;
36257;SDS011;22294;52.044;4.582;2023-02-15T14:29:39;68.40;;;35.25;;
36257;SDS011;22294;52.044;4.582;2023-02-15T14:32:25;60.65;;;32.85;;
36257;SDS011;22294;52.044;4.582;2023-02-15T14:34:57;68.25;;;34.85;;
36257;SDS011;22294;52.044;4.582;2023-02-15T14:37:35;56.80;;;33.15;;
36257;SDS011;22294;52.044;4.582;2023-02-15T14:49:22;60.47;;;33.72;;
36257;SDS011;22294;52.044;4.582;2023-02-15T14:56:40;60.40;;;33.40;;
36257;SDS011;22294;52.044;4.582;2023-02-15T14:59:12;54.65;;;32.78;;
36257;SDS011;22294;52.044;4.582;2023-02-15T15:02:39;60.78;;;34.58;;
36257;SDS011;22294;52.044;4.582;2023-02-15T15:04:32;62.05;;;34.05;;
36257;SDS011;22294;52.044;4.582;2023-02-15T15:09:37;64.15;;;35.85;;
36257;SDS011;22294;52.044;4.582;2023-02-15T15:12:13;63.33;;;35.00;;
36257;SDS011;22294;52.044;4.582;2023-02-15T15:14:42;58.05;;;31.58;;
36257;SDS011;22294;52.044;4.582;2023-02-15T15:17:13;60.50;;;31.45;;
36257;SDS011;22294;52.044;4.582;2023-02-15T15:20:10;53.65;;;31.95;;
36257;SDS011;22294;52.044;4.582;2023-02-15T15:22:42;66.03;;;32.92;;
36257;SDS011;22294;52.044;4.582;2023-02-15T15:27:52;64.82;;;35.22;;
36257;SDS011;22294;52.044;4.582;2023-02-15T15:41:19;64.95;;;36.75;;
36257;SDS011;22294;52.044;4.582;2023-02-15T15:49:30;63.63;;;36.47;;
36257;SDS011;22294;52.044;4.582;2023-02-15T15:52:01;66.65;;;38.60;;
36257;SDS011;22294;52.044;4.582;2023-02-15T15:54:28;64.05;;;37.35;;
36257;SDS011;22294;52.044;4.582;2023-02-15T15:56:55;63.08;;;38.53;;
36257;SDS011;22294;52.044;4.582;2023-02-15T15:59:27;70.32;;;39.65;;
36257;SDS011;22294;52.044;4.582;2023-02-15T16:01:54;66.90;;;38.38;;
36257;SDS011;22294;52.044;4.582;2023-02-15T16:04:27;67.82;;;36.30;;
36257;SDS011;22294;52.044;4.582;2023-02-15T16:06:58;65.03;;;38.95;;
36257;SDS011;22294;52.044;4.582;2023-02-15T16:09:38;66.68;;;39.25;;
36257;SDS011;22294;52.044;4.582;2023-02-15T16:12:04;69.15;;;38.70;;
36257;SDS011;22294;52.044;4.582;2023-02-15T16:14:40;67.25;;;39.00;;
36257;SDS011;22294;52.044;4.582;2023-02-15T16:17:13;65.00;;;39.78;;
36257;SDS011;22294;52.044;4.582;2023-02-15T16:19:45;64.25;;;38.83;;
36257;SDS011;22294;52.044;4.582;2023-02-15T16:22:11;70.28;;;40.67;;
36257;SDS011;22294;52.044;4.582;2023-02-15T16:27:43;66.53;;;38.10;;
36257;SDS011;22294;52.044;4.582;2023-02-15T16:32:54;71.93;;;39.13;;
36257;SDS011;22294;52.044;4.582;2023-02-15T16:35:29;66.43;;;39.10;;
36257;SDS011;22294;52.044;4.582;2023-02-15T16:37:55;72.15;;;40.90;;
36257;SDS011;22294;52.044;4.582;2023-02-15T16:42:49;73.38;;;38.80;;
36257;SDS011;22294;52.044;4.582;2023-02-15T16:45:26;71.43;;;40.08;;
36257;SDS011;22294;52.044;4.582;2023-02-15T16:47:53;69.45;;;39.33;;
36257;SDS011;22294;52.044;4.582;2023-02-15T16:50:23;69.60;;;39.30;;
36257;SDS011;22294;52.044;4.582;2023-02-15T16:52:53;69.88;;;39.25;;
36257;SDS011;22294;52.044;4.582;2023-02-15T16:55:22;69.15;;;40.58;;
36257;SDS011;22294;52.044;4.582;2023-02-15T16:57:49;76.75;;;41.65;;
36257;SDS011;22294;52.044;4.582;2023-02-15T17:00:19;76.70;;;41.47;;
36257;SDS011;22294;52.044;4.582;2023-02-15T17:02:57;73.40;;;39.88;;
36257;SDS011;22294;52.044;4.582;2023-02-15T17:05:23;70.00;;;39.90;;
36257;SDS011;22294;52.044;4.582;2023-02-15T17:07:50;67.15;;;38.30;;
36257;SDS011;22294;52.044;4.582;2023-02-15T17:10:35;72.53;;;41.05;;
36257;SDS011;22294;52.044;4.582;2023-02-15T17:13:13;63.90;;;38.65;;
36257;SDS011;22294;52.044;4.582;2023-02-15T17:15:44;66.95;;;38.15;;
36257;SDS011;22294;52.044;4.582;2023-02-15T17:21:09;66.53;;;38.00;;
36257;SDS011;22294;52.044;4.582;2023-02-15T17:23:44;63.65;;;37.03;;
36257;SDS011;22294;52.044;4.582;2023-02-15T17:26:18;70.72;;;39.38;;
36257;SDS011;22294;52.044;4.582;2023-02-15T17:29:18;72.55;;;38.22;;
36257;SDS011;22294;52.044;4.582;2023-02-15T17:32:03;65.90;;;37.08;;
36257;SDS011;22294;52.044;4.582;2023-02-15T17:34:47;67.20;;;37.40;;
36257;SDS011;22294;52.044;4.582;2023-02-15T17:39:51;65.68;;;37.40;;
36257;SDS011;22294;52.044;4.582;2023-02-15T17:42:17;68.53;;;37.65;;
36257;SDS011;22294;52.044;4.582;2023-02-15T17:44:42;68.32;;;37.78;;